Time;durP1;ratioP1;P1;durP2;ratioP2;P2;SDS_P1;SDS_P2;PMS_P1;PMS_P2;Temp;Humidity;BMP_temperature;BMP_pressure;BME280_temperature;BME280_humidity;BME280_pressure;Samples;Min_cycle;Max_cycle;Signal;HPM_P1;HPM_P2
2021/01/28 00:01:27;;;;;;;1.70;1.30;;;19.50;45.00;;;;;;5014145;28;20103;-40
2021/01/28 00:03:53;;;;;;;2.03;1.13;;;19.50;45.00;;;;;;5012452;28;20140;-40
2021/01/28 00:06:29;;;;;;;1.40;1.10;;;19.50;45.00;;;;;;5011266;28;20042;-40
2021/01/28 00:08:56;;;;;;;2.13;1.10;;;19.50;45.00;;;;;;5010761;28;20046;-41
2021/01/28 00:11:23;;;;;;;1.17;1.08;;;19.40;45.00;;;;;;5010611;28;20100;-41
2021/01/28 00:13:49;;;;;;;1.48;1.13;;;19.50;45.00;;;;;;5009278;28;20046;-43
2021/01/28 00:16:16;;;;;;;1.83;1.23;;;19.40;45.00;;;;;;5010342;28;20046;-40
2021/01/28 00:18:44;;;;;;;1.70;1.27;;;19.50;45.00;;;;;;5010684;28;20046;-41
2021/01/28 00:21:10;;;;;;;2.25;1.45;;;19.40;44.90;;;;;;5011806;28;20044;-40
2021/01/28 00:23:37;;;;;;;1.85;1.13;;;19.40;45.00;;;;;;5010830;28;20076;-45
2021/01/28 00:26:04;;;;;;;1.85;1.30;;;19.40;45.00;;;;;;5008997;28;20050;-40
2021/01/28 00:28:30;;;;;;;2.05;1.17;;;19.40;45.00;;;;;;5009083;28;20387;-40
2021/01/28 00:30:57;;;;;;;1.50;1.20;;;19.40;45.00;;;;;;5010947;28;20490;-40
2021/01/28 00:33:25;;;;;;;1.73;1.45;;;19.40;45.00;;;;;;5011107;28;20375;-41
2021/01/28 00:35:55;;;;;;;1.83;1.30;;;19.40;45.00;;;;;;5010628;28;20532;-40
2021/01/28 00:38:29;;;;;;;2.28;1.48;;;19.40;45.00;;;;;;5010685;28;20096;-41
2021/01/28 00:40:57;;;;;;;1.60;1.25;;;19.40;45.60;;;;;;5010240;28;20053;-40
2021/01/28 00:43:25;;;;;;;1.77;1.35;;;19.40;45.00;;;;;;5010628;28;20042;-41
2021/01/28 00:45:52;;;;;;;1.60;1.20;;;19.40;45.00;;;;;;5009192;28;20049;-40
2021/01/28 00:48:20;;;;;;;1.30;0.98;;;19.40;45.00;;;;;;5010220;28;20042;-40
2021/01/28 00:50:47;;;;;;;1.60;1.30;;;19.40;45.00;;;;;;5010617;28;20078;-40
2021/01/28 00:53:16;;;;;;;1.17;1.00;;;19.40;45.00;;;;;;5024276;28;20050;-40
2021/01/28 00:55:44;;;;;;;1.80;1.15;;;19.40;45.00;;;;;;5010316;28;21676;-40
2021/01/28 00:58:15;;;;;;;1.92;1.42;;;19.40;45.00;;;;;;5011033;28;20110;-41
2021/01/28 01:00:44;;;;;;;1.42;1.30;;;19.40;45.00;;;;;;5011023;28;20053;-41
2021/01/28 01:03:14;;;;;;;1.60;1.30;;;19.40;45.00;;;;;;5011720;28;20046;-41
2021/01/28 01:05:41;;;;;;;1.45;0.95;;;19.40;45.00;;;;;;5008705;28;20045;-40
2021/01/28 01:08:16;;;;;;;1.80;1.40;;;19.40;45.00;;;;;;5011389;28;20552;-41
2021/01/28 01:10:56;;;;;;;2.92;1.50;;;19.40;45.00;;;;;;5008890;28;20046;-40
2021/01/28 01:13:25;;;;;;;2.03;1.30;;;19.40;45.00;;;;;;5025013;28;20050;-40
2021/01/28 01:15:52;;;;;;;2.05;1.60;;;19.40;45.00;;;;;;5010295;28;20405;-40
2021/01/28 01:18:25;;;;;;;1.83;1.30;;;19.40;45.00;;;;;;5010049;28;20422;-41
2021/01/28 01:20:53;;;;;;;2.33;1.60;;;19.40;45.00;;;;;;5010223;28;20046;-39
2021/01/28 01:23:20;;;;;;;1.55;1.23;;;19.40;45.00;;;;;;5009733;28;20101;-39
2021/01/28 01:25:54;;;;;;;2.42;1.60;;;19.40;45.00;;;;;;5008495;28;20050;-42
2021/01/28 01:28:21;;;;;;;2.40;1.40;;;19.40;45.00;;;;;;5011089;28;20100;-41
2021/01/28 01:30:48;;;;;;;1.50;1.25;;;19.40;45.00;;;;;;5012366;28;20042;-40
2021/01/28 01:33:15;;;;;;;1.67;1.48;;;19.40;45.00;;;;;;5014627;28;20050;-40
2021/01/28 01:35:42;;;;;;;1.98;1.40;;;19.40;45.00;;;;;;5014987;28;20069;-41
2021/01/28 01:38:10;;;;;;;2.13;1.42;;;19.40;45.00;;;;;;5014232;28;20140;-40
2021/01/28 01:40:44;;;;;;;1.33;1.00;;;19.40;45.00;;;;;;5013742;28;20056;-40
2021/01/28 01:43:13;;;;;;;2.15;1.40;;;19.40;45.00;;;;;;5012128;28;20520;-40
2021/01/28 01:46:11;;;;;;;2.22;1.50;;;19.40;45.00;;;;;;5014443;28;20050;-40
2021/01/28 01:48:49;;;;;;;2.05;1.55;;;19.40;45.00;;;;;;4992453;28;20046;-40
2021/01/28 01:51:25;;;;;;;2.13;1.50;;;19.40;45.00;;;;;;4992766;28;20046;-40
2021/01/28 01:53:53;;;;;;;2.13;1.27;;;19.40;45.00;;;;;;4992700;28;20081;-41
2021/01/28 01:56:25;;;;;;;1.73;1.33;;;19.40;45.00;;;;;;4992413;28;20058;-39
2021/01/28 01:59:16;;;;;;;2.08;1.38;;;19.40;45.00;;;;;;4992541;28;20430;-42
2021/01/28 02:01:51;;;;;;;2.13;1.25;;;19.40;45.00;;;;;;4992228;28;20054;-40
2021/01/28 02:04:19;;;;;;;2.33;1.55;;;19.40;45.00;;;;;;4992684;28;20058;-40
2021/01/28 02:06:51;;;;;;;1.58;1.38;;;19.40;45.00;;;;;;4992231;28;20505;-40
2021/01/28 02:09:18;;;;;;;1.92;1.35;;;19.40;45.00;;;;;;4992154;28;20138;-39
2021/01/28 02:11:46;;;;;;;1.83;1.30;;;19.30;45.00;;;;;;4992461;28;20494;-40
2021/01/28 02:14:14;;;;;;;1.80;1.25;;;19.30;45.00;;;;;;4992205;28;20074;-39
2021/01/28 02:16:51;;;;;;;1.63;1.25;;;19.30;45.00;;;;;;4992144;28;20085;-40
2021/01/28 02:19:48;;;;;;;2.53;1.63;;;19.30;45.00;;;;;;4975826;28;20526;-39
2021/01/28 02:22:28;;;;;;;2.10;1.40;;;19.40;45.00;;;;;;4977806;28;20101;-39
2021/01/28 02:25:31;;;;;;;2.08;1.40;;;19.30;45.00;;;;;;4999328;28;20116;-39
2021/01/28 02:28:05;;;;;;;2.08;1.48;;;19.30;45.00;;;;;;5011326;28;20086;-41
2021/01/28 02:30:34;;;;;;;1.85;1.30;;;19.30;45.00;;;;;;5011391;28;20046;-40
2021/01/28 02:33:01;;;;;;;1.40;1.10;;;19.30;45.00;;;;;;5027690;28;20088;-40
2021/01/28 02:35:31;;;;;;;2.20;1.10;;;19.30;45.00;;;;;;5013057;28;20460;-39
2021/01/28 02:38:01;;;;;;;2.08;1.42;;;19.30;45.00;;;;;;5014247;28;20112;-40
2021/01/28 02:40:29;;;;;;;1.88;1.30;;;19.30;45.00;;;;;;5012364;28;20124;-40
2021/01/28 02:42:56;;;;;;;1.75;1.10;;;19.30;45.00;;;;;;5012448;28;20141;-40
2021/01/28 02:45:30;;;;;;;2.00;1.10;;;19.30;45.00;;;;;;5011180;28;20120;-40
2021/01/28 02:48:00;;;;;;;1.90;1.40;;;19.30;45.00;;;;;;5012309;28;20050;-40
2021/01/28 02:50:28;;;;;;;2.00;1.30;;;19.30;45.00;;;;;;5012105;28;20553;-39
2021/01/28 02:53:01;;;;;;;2.03;1.40;;;19.30;45.00;;;;;;5026133;28;20090;-40
2021/01/28 02:55:31;;;;;;;1.85;1.30;;;19.30;45.00;;;;;;5012342;28;20050;-40
2021/01/28 02:57:58;;;;;;;2.78;1.52;;;19.30;45.00;;;;;;5013575;28;20084;-40
2021/01/28 03:00:33;;;;;;;2.15;1.50;;;19.30;45.00;;;;;;5011871;28;20050;-40
2021/01/28 03:03:03;;;;;;;2.08;1.50;;;19.30;45.00;;;;;;5020961;28;20050;-40
2021/01/28 03:05:30;;;;;;;1.30;1.20;;;19.30;45.00;;;;;;5010621;28;20046;-40
2021/01/28 03:07:57;;;;;;;1.38;1.10;;;19.30;45.00;;;;;;5012505;28;20130;-41
2021/01/28 03:10:24;;;;;;;1.83;1.27;;;19.30;45.00;;;;;;5011619;28;20049;-40
2021/01/28 03:12:51;;;;;;;2.13;1.50;;;19.30;45.60;;;;;;5013055;28;20080;-40
2021/01/28 03:15:23;;;;;;;1.85;1.33;;;19.30;45.00;;;;;;5010411;28;20133;-39
2021/01/28 03:17:54;;;;;;;2.58;1.45;;;19.30;45.00;;;;;;5011533;28;20054;-42
2021/01/28 03:20:23;;;;;;;2.58;1.48;;;19.30;45.00;;;;;;5012851;28;20076;-42
2021/01/28 03:22:50;;;;;;;2.00;1.40;;;19.30;45.00;;;;;;5011563;28;20549;-41
2021/01/28 03:25:19;;;;;;;1.77;1.35;;;19.30;45.00;;;;;;5010192;28;20061;-40
2021/01/28 03:27:47;;;;;;;1.60;1.40;;;19.30;45.00;;;;;;5011354;28;20050;-42
2021/01/28 03:30:36;;;;;;;2.00;1.50;;;19.30;45.10;;;;;;5011548;28;20104;-41
2021/01/28 03:33:07;;;;;;;1.38;1.17;;;19.30;45.00;;;;;;5010216;28;20451;-41
2021/01/28 03:35:35;;;;;;;1.85;1.27;;;19.30;45.00;;;;;;5012690;28;20045;-41
2021/01/28 03:38:02;;;;;;;1.60;1.30;;;19.30;45.00;;;;;;5010209;28;20391;-42
2021/01/28 03:40:31;;;;;;;1.73;1.40;;;19.30;45.00;;;;;;5010005;28;20046;-39
2021/01/28 03:42:58;;;;;;;1.88;1.30;;;19.30;45.00;;;;;;5011377;28;20568;-42
2021/01/28 03:45:26;;;;;;;1.98;1.30;;;19.30;45.00;;;;;;5013152;28;20058;-40
2021/01/28 03:47:55;;;;;;;1.92;1.38;;;19.30;45.00;;;;;;5011943;28;20478;-43
2021/01/28 03:50:27;;;;;;;1.55;1.30;;;19.30;45.00;;;;;;5011257;28;20058;-40
2021/01/28 03:52:54;;;;;;;1.70;1.20;;;19.30;45.00;;;;;;5011234;28;20131;-41
2021/01/28 03:55:21;;;;;;;1.42;1.20;;;19.30;45.00;;;;;;5011183;28;20453;-40
2021/01/28 03:57:50;;;;;;;1.80;1.30;;;19.30;45.00;;;;;;5010069;28;20482;-40
2021/01/28 04:00:20;;;;;;;1.95;1.40;;;19.30;45.00;;;;;;5009907;28;20049;-40
2021/01/28 04:02:47;;;;;;;1.10;1.00;;;19.30;45.00;;;;;;5016435;28;20046;-40
2021/01/28 04:05:18;;;;;;;1.42;1.27;;;19.30;45.00;;;;;;5009666;28;20048;-40
2021/01/28 04:07:45;;;;;;;1.42;1.05;;;19.30;45.00;;;;;;5011947;28;20556;-41
2021/01/28 04:10:16;;;;;;;1.70;1.10;;;19.30;45.10;;;;;;5011039;28;20096;-42
2021/01/28 04:12:43;;;;;;;2.08;1.50;;;19.20;45.00;;;;;;5010686;28;20122;-41
2021/01/28 04:15:12;;;;;;;1.77;1.40;;;19.30;45.00;;;;;;5012376;28;20101;-40
2021/01/28 04:17:39;;;;;;;1.88;1.38;;;19.20;45.00;;;;;;5011414;28;20132;-40
2021/01/28 04:20:07;;;;;;;2.10;1.30;;;19.20;44.90;;;;;;5010612;28;20050;-40
2021/01/28 04:22:34;;;;;;;2.47;1.75;;;19.20;45.00;;;;;;5009657;28;20632;-40
2021/01/28 04:25:03;;;;;;;1.48;1.30;;;19.30;45.10;;;;;;5024381;28;20137;-40
2021/01/28 04:27:29;;;;;;;1.70;1.30;;;19.20;45.00;;;;;;5008886;28;20049;-42
2021/01/28 04:29:56;;;;;;;1.58;1.30;;;19.20;45.00;;;;;;5009340;28;20042;-40
2021/01/28 04:32:23;;;;;;;1.90;1.40;;;19.20;45.00;;;;;;5010376;28;20096;-41
2021/01/28 04:34:50;;;;;;;2.05;1.33;;;19.20;45.00;;;;;;5003168;28;20049;-41
2021/01/28 04:37:17;;;;;;;1.80;1.33;;;19.20;45.00;;;;;;5010688;28;20575;-40
2021/01/28 04:39:44;;;;;;;1.33;1.00;;;19.20;45.00;;;;;;5011602;28;20053;-41
2021/01/28 04:42:18;;;;;;;1.70;1.35;;;19.20;45.00;;;;;;5011550;28;20081;-40
2021/01/28 04:44:45;;;;;;;1.13;1.02;;;19.20;45.00;;;;;;5011246;28;20108;-40
2021/01/28 04:47:15;;;;;;;1.65;1.30;;;19.20;45.00;;;;;;5009957;28;20050;-40
2021/01/28 04:49:58;;;;;;;1.67;1.58;;;19.20;45.00;;;;;;5010587;28;20046;-40
2021/01/28 04:52:26;;;;;;;1.50;1.23;;;19.30;45.10;;;;;;5025489;28;20100;-39
2021/01/28 04:54:55;;;;;;;1.25;1.13;;;19.20;45.00;;;;;;5024259;28;20042;-40
2021/01/28 04:57:22;;;;;;;1.45;1.10;;;19.20;45.00;;;;;;5010414;28;20119;-40
2021/01/28 04:59:52;;;;;;;1.38;1.17;;;19.20;45.00;;;;;;5009201;28;20046;-40
2021/01/28 05:02:25;;;;;;;1.90;1.20;;;19.20;45.00;;;;;;5010196;28;20069;-41
2021/01/28 05:04:58;;;;;;;1.60;1.13;;;19.20;45.00;;;;;;5012816;28;20053;-40
2021/01/28 05:07:30;;;;;;;2.53;1.55;;;19.20;45.00;;;;;;5013219;28;20413;-39
2021/01/28 05:10:12;;;;;;;1.42;1.10;;;19.20;45.00;;;;;;5013047;28;20565;-39
2021/01/28 05:12:39;;;;;;;2.20;1.25;;;19.20;45.00;;;;;;5014146;28;20529;-40
2021/01/28 05:15:19;;;;;;;1.63;1.20;;;19.20;45.00;;;;;;5014343;28;20042;-42
2021/01/28 05:18:03;;;;;;;1.70;1.40;;;19.20;45.00;;;;;;5014470;28;20493;-40
2021/01/28 05:20:31;;;;;;;1.63;1.30;;;19.20;45.00;;;;;;5014433;28;20056;-40
2021/01/28 05:23:03;;;;;;;2.20;1.40;;;19.20;45.00;;;;;;5014344;28;20085;-39
2021/01/28 05:25:37;;;;;;;1.95;1.38;;;19.20;45.00;;;;;;5013470;28;20119;-41
2021/01/28 05:28:34;;;;;;;1.55;1.10;;;19.20;45.00;;;;;;5015144;28;20127;-40
2021/01/28 05:31:01;;;;;;;1.50;1.10;;;19.20;45.00;;;;;;4997741;28;20446;-40
2021/01/28 05:33:40;;;;;;;1.80;1.38;;;19.20;45.00;;;;;;5015656;28;20445;-40
2021/01/28 05:36:17;;;;;;;1.55;1.20;;;19.20;45.00;;;;;;5015412;28;20103;-40
2021/01/28 05:38:55;;;;;;;1.73;1.40;;;19.20;45.00;;;;;;5015197;28;20088;-42
2021/01/28 05:41:42;;;;;;;2.17;1.40;;;19.20;45.00;;;;;;5014768;28;20080;-41
2021/01/28 05:44:19;;;;;;;1.40;1.15;;;19.20;45.00;;;;;;5014736;28;20552;-39
2021/01/28 05:47:13;;;;;;;1.63;1.10;;;19.20;45.00;;;;;;5014650;28;20045;-41
2021/01/28 05:49:42;;;;;;;1.35;1.23;;;19.20;45.00;;;;;;5014277;28;20472;-40
2021/01/28 05:52:41;;;;;;;1.58;1.10;;;19.20;45.00;;;;;;5029967;28;20084;-40
2021/01/28 05:55:08;;;;;;;1.58;1.20;;;19.20;45.00;;;;;;4954426;28;20052;-40
2021/01/28 05:58:06;;;;;;;1.88;1.27;;;19.20;44.90;;;;;;4955421;28;20141;-40
2021/01/28 06:00:41;;;;;;;1.55;1.25;;;19.20;44.90;;;;;;4953579;28;20142;-40
2021/01/28 06:03:22;;;;;;;1.50;1.20;;;19.20;44.90;;;;;;4972175;28;20466;-40
2021/01/28 06:06:10;;;;;;;1.27;0.90;;;19.20;44.90;;;;;;4956312;28;20051;-39
2021/01/28 06:08:42;;;;;;;2.30;1.50;;;19.20;44.90;;;;;;4954005;28;20058;-40
2021/01/28 06:11:37;;;;;;;2.08;1.35;;;19.20;44.90;;;;;;4953854;28;20489;-41
2021/01/28 06:14:28;;;;;;;1.90;1.33;;;19.20;44.90;;;;;;4953959;28;20094;-40
2021/01/28 06:17:25;;;;;;;1.33;0.90;;;19.20;44.90;;;;;;4937971;28;20527;-39
2021/01/28 06:19:52;;;;;;;1.60;1.20;;;19.20;44.90;;;;;;4954660;28;20051;-39
2021/01/28 06:22:41;;;;;;;1.65;1.30;;;19.20;44.90;;;;;;4953789;28;20150;-40
2021/01/28 06:25:08;;;;;;;2.15;1.10;;;19.20;44.90;;;;;;4939765;28;20109;-40
2021/01/28 06:27:44;;;;;;;1.48;1.00;;;19.20;45.00;;;;;;4953735;28;20055;-40
2021/01/28 06:30:49;;;;;;;1.95;1.30;;;19.20;44.90;;;;;;4966023;28;20112;-39
2021/01/28 06:33:45;;;;;;;1.63;1.25;;;19.20;44.90;;;;;;4997914;28;20050;-41
2021/01/28 06:36:30;;;;;;;1.85;1.40;;;19.20;44.90;;;;;;4999875;28;20053;-40
2021/01/28 06:39:20;;;;;;;1.80;1.30;;;19.20;44.90;;;;;;5014017;28;20050;-40
2021/01/28 06:42:00;;;;;;;2.17;1.35;;;19.20;44.90;;;;;;5011144;28;20073;-41
2021/01/28 06:44:36;;;;;;;1.88;1.42;;;19.20;44.90;;;;;;5012706;28;20456;-41
2021/01/28 06:47:28;;;;;;;2.15;1.40;;;19.20;44.90;;;;;;5012763;28;20073;-40
2021/01/28 06:50:22;;;;;;;1.52;1.30;;;19.30;45.00;;;;;;5013695;28;20383;-40
2021/01/28 06:53:07;;;;;;;2.15;1.35;;;19.30;45.00;;;;;;5012513;28;20042;-42
2021/01/28 06:55:50;;;;;;;1.58;1.10;;;19.30;45.00;;;;;;5011995;28;20485;-40
2021/01/28 06:58:48;;;;;;;2.07;1.33;;;19.30;45.00;;;;;;5013334;28;20084;-45
2021/01/28 07:01:38;;;;;;;1.83;1.20;;;19.30;45.00;;;;;;5014928;28;20489;-41
2021/01/28 07:04:23;;;;;;;1.60;1.42;;;19.30;45.00;;;;;;5016891;28;20050;-41
2021/01/28 07:07:11;;;;;;;1.67;1.27;;;19.30;45.00;;;;;;5012194;28;20096;-40
2021/01/28 07:09:42;;;;;;;1.65;1.17;;;19.30;45.00;;;;;;5012195;28;20053;-40
2021/01/28 07:12:17;;;;;;;1.33;1.10;;;19.30;45.00;;;;;;5011893;28;20129;-40
2021/01/28 07:14:48;;;;;;;1.55;1.08;;;19.30;45.00;;;;;;5012153;28;20084;-40
2021/01/28 07:17:24;;;;;;;1.70;1.08;;;19.30;45.00;;;;;;5010757;28;20076;-40
2021/01/28 07:20:04;;;;;;;1.58;1.20;;;19.30;45.00;;;;;;5010862;28;20408;-40
2021/01/28 07:22:39;;;;;;;1.50;1.20;;;19.30;45.00;;;;;;5026990;28;20046;-39
2021/01/28 07:25:35;;;;;;;1.30;1.00;;;19.30;45.00;;;;;;5010587;28;20053;-40
2021/01/28 07:28:13;;;;;;;1.77;1.27;;;19.30;45.00;;;;;;5011255;28;20053;-39
2021/01/28 07:30:40;;;;;;;1.65;1.10;;;19.30;45.00;;;;;;5026978;28;20089;-40
2021/01/28 07:33:28;;;;;;;1.42;1.05;;;19.30;45.00;;;;;;5011659;28;20049;-39
2021/01/28 07:35:56;;;;;;;1.40;1.20;;;19.30;45.00;;;;;;5001919;28;20100;-40
2021/01/28 07:38:31;;;;;;;1.77;1.10;;;19.30;45.00;;;;;;5011722;28;20552;-42
2021/01/28 07:41:19;;;;;;;2.38;1.70;;;19.30;45.00;;;;;;5011581;28;20124;-41
2021/01/28 07:43:50;;;;;;;1.60;1.25;;;19.30;45.00;;;;;;5009909;28;20077;-40
2021/01/28 07:46:28;;;;;;;1.30;1.00;;;19.30;45.00;;;;;;5011480;28;20107;-40
2021/01/28 07:49:20;;;;;;;1.42;1.30;;;19.30;45.00;;;;;;5011698;28;20085;-40
2021/01/28 07:51:48;;;;;;;1.83;1.27;;;19.30;44.90;;;;;;5010061;28;20124;-40
2021/01/28 07:54:24;;;;;;;1.67;1.25;;;19.30;44.90;;;;;;5012647;28;20050;-39
2021/01/28 07:57:06;;;;;;;1.70;1.20;;;19.30;44.90;;;;;;4994046;28;20046;-40
2021/01/28 07:59:42;;;;;;;1.17;1.08;;;19.30;44.90;;;;;;4996149;28;20410;-39
2021/01/28 08:02:26;;;;;;;1.63;1.23;;;19.30;45.00;;;;;;5009541;28;20489;-43
2021/01/28 08:04:58;;;;;;;;;;;19.30;44.90;;;;;;4994928;28;20052;-40
2021/01/28 08:07:43;;;;;;;1.88;1.35;;;19.30;44.90;;;;;;5012321;28;19968;-40
2021/01/28 08:10:19;;;;;;;1.85;1.20;;;19.30;44.90;;;;;;5010281;28;20057;-38
2021/01/28 08:12:54;;;;;;;1.48;1.15;;;19.30;45.00;;;;;;5012600;28;20099;-39
2021/01/28 08:15:34;;;;;;;1.90;1.15;;;19.30;45.00;;;;;;5011816;28;20507;-39
2021/01/28 08:18:17;;;;;;;1.85;1.05;;;19.30;44.90;;;;;;5012374;28;20492;-39
2021/01/28 08:20:44;;;;;;;1.13;1.02;;;19.30;45.00;;;;;;5012395;28;20049;-39
2021/01/28 08:23:27;;;;;;;1.67;1.20;;;19.30;44.90;;;;;;5011554;28;20046;-39
2021/01/28 08:25:58;;;;;;;2.05;1.30;;;19.30;44.90;;;;;;5009815;28;20077;-39
2021/01/28 08:28:28;;;;;;;1.23;1.10;;;19.30;44.90;;;;;;5010807;28;20096;-39
2021/01/28 08:31:19;;;;;;;1.40;1.08;;;19.30;44.90;;;;;;5009254;28;20050;-39
2021/01/28 08:34:09;;;;;;;1.60;1.10;;;19.30;44.90;;;;;;5010957;28;20041;-40
2021/01/28 08:36:47;;;;;;;1.85;1.20;;;19.30;44.80;;;;;;5009087;28;20629;-41
2021/01/28 08:39:19;;;;;;;1.40;1.10;;;19.30;44.90;;;;;;5010095;28;20042;-40
2021/01/28 08:41:58;;;;;;;1.83;1.30;;;19.30;44.90;;;;;;5010530;28;20049;-40
2021/01/28 08:44:25;;;;;;;1.70;1.20;;;19.40;44.90;;;;;;5009402;28;20131;-43
2021/01/28 08:47:09;;;;;;;1.45;1.08;;;19.40;44.90;;;;;;5010728;28;20096;-40
2021/01/28 08:49:36;;;;;;;;;;;19.40;44.90;;;;;;4972641;28;20484;-42
2021/01/28 08:52:07;;;;;;;1.50;1.13;;;19.40;44.90;;;;;;5010821;28;19932;-40
2021/01/28 08:54:43;;;;;;;1.70;1.33;;;19.40;44.90;;;;;;5010392;28;20096;-41
2021/01/28 08:57:14;;;;;;;1.52;1.20;;;19.40;44.90;;;;;;5010062;28;20057;-41
2021/01/28 08:59:55;;;;;;;1.65;1.33;;;19.40;45.00;;;;;;5011624;28;20081;-41
2021/01/28 09:02:31;;;;;;;1.30;1.20;;;19.40;45.50;;;;;;5012886;28;20564;-40
2021/01/28 09:05:18;;;;;;;1.50;1.30;;;19.40;45.00;;;;;;5010437;28;20502;-41
2021/01/28 09:07:54;;;;;;;2.03;1.42;;;19.40;44.90;;;;;;5008933;28;20045;-41
2021/01/28 09:10:37;;;;;;;1.50;1.17;;;19.40;44.90;;;;;;5010018;28;20038;-40
2021/01/28 09:13:13;;;;;;;2.00;1.20;;;19.40;44.90;;;;;;5011374;28;20042;-40
2021/01/28 09:15:41;;;;;;;1.35;1.00;;;19.40;44.90;;;;;;5010501;28;20060;-41
2021/01/28 09:18:29;;;;;;;1.60;1.13;;;19.40;44.90;;;;;;5010510;28;20120;-41
2021/01/28 09:21:13;;;;;;;1.70;1.20;;;19.40;44.90;;;;;;5010622;28;20046;-41
2021/01/28 09:23:58;;;;;;;1.52;1.30;;;19.40;44.90;;;;;;5009595;28;20088;-41
2021/01/28 09:26:35;;;;;;;1.55;1.17;;;19.40;44.90;;;;;;5022562;28;20058;-40
2021/01/28 09:29:21;;;;;;;1.63;1.33;;;19.40;44.90;;;;;;5011319;28;20047;-40
2021/01/28 09:31:50;;;;;;;1.67;1.20;;;19.40;44.90;;;;;;5009987;28;20050;-40
2021/01/28 09:34:27;;;;;;;1.30;1.00;;;19.40;44.90;;;;;;5010239;28;20042;-40
2021/01/28 09:37:00;;;;;;;1.63;1.35;;;19.40;44.90;;;;;;5025326;28;20074;-40
2021/01/28 09:39:53;;;;;;;1.65;1.20;;;19.40;44.90;;;;;;5010457;28;20429;-40
2021/01/28 09:42:31;;;;;;;1.90;1.27;;;19.40;44.80;;;;;;4994385;28;20105;-40
2021/01/28 09:45:11;;;;;;;1.75;1.25;;;19.40;44.80;;;;;;5009196;28;20507;-41
2021/01/28 09:47:38;;;;;;;2.22;1.20;;;19.40;44.80;;;;;;4993438;28;20074;-40
2021/01/28 09:50:11;;;;;;;1.50;1.10;;;19.40;44.90;;;;;;5012601;28;20519;-40
2021/01/28 09:52:41;;;;;;;2.85;1.40;;;19.40;44.80;;;;;;5013367;28;20077;-40
2021/01/28 09:55:20;;;;;;;1.65;1.27;;;19.40;44.80;;;;;;5014343;28;20104;-40
2021/01/28 09:57:47;;;;;;;1.30;1.10;;;19.40;44.80;;;;;;5013816;28;20054;-41
2021/01/28 10:00:19;;;;;;;1.23;1.00;;;19.50;44.90;;;;;;5011980;28;20046;-41
2021/01/28 10:02:58;;;;;;;2.10;1.55;;;19.40;44.80;;;;;;5029145;28;20049;-41
2021/01/28 10:05:29;;;;;;;1.40;1.02;;;19.50;44.90;;;;;;5027142;28;20057;-46
2021/01/28 10:07:57;;;;;;;1.92;1.20;;;19.50;44.90;;;;;;5013335;28;20057;-41
2021/01/28 10:10:29;;;;;;;1.52;1.27;;;19.50;44.90;;;;;;5012834;28;20105;-40
2021/01/28 10:12:59;;;;;;;1.45;1.00;;;19.50;44.90;;;;;;5012065;28;20517;-43
2021/01/28 10:15:26;;;;;;;1.40;1.20;;;19.50;44.90;;;;;;5012942;28;20042;-44
2021/01/28 10:17:55;;;;;;;1.85;1.20;;;19.50;44.90;;;;;;5013209;28;20050;-41
2021/01/28 10:20:23;;;;;;;1.77;1.30;;;19.40;44.80;;;;;;5011750;28;20046;-42
2021/01/28 10:22:51;;;;;;;1.15;1.02;;;19.50;44.80;;;;;;5014247;28;20406;-42
2021/01/28 10:25:20;;;;;;;1.45;1.33;;;19.50;44.80;;;;;;5010493;28;20106;-40
2021/01/28 10:27:46;;;;;;;1.48;1.08;;;19.50;44.90;;;;;;5013203;28;20112;-40
2021/01/28 10:30:16;;;;;;;1.40;1.10;;;19.50;44.80;;;;;;5013424;28;20133;-42
2021/01/28 10:32:48;;;;;;;1.73;1.20;;;19.50;44.80;;;;;;5012888;28;20052;-42
2021/01/28 10:35:17;;;;;;;2.60;1.02;;;19.50;44.80;;;;;;5012872;28;20057;-40
2021/01/28 10:37:44;;;;;;;1.27;1.00;;;19.50;44.90;;;;;;5014010;28;20050;-40
2021/01/28 10:40:12;;;;;;;1.38;1.20;;;19.50;44.80;;;;;;5013618;28;20054;-41
2021/01/28 10:42:40;;;;;;;1.80;1.20;;;19.50;44.80;;;;;;5012464;28;20041;-40
2021/01/28 10:45:20;;;;;;;1.20;0.98;;;19.50;44.80;;;;;;5012396;28;20054;-43
2021/01/28 10:47:48;;;;;;;1.70;1.17;;;19.50;44.80;;;;;;5012283;28;20045;-41
2021/01/28 10:50:27;;;;;;;1.50;1.25;;;19.50;44.80;;;;;;5012351;28;20045;-43
2021/01/28 10:52:54;;;;;;;2.20;1.48;;;19.50;44.80;;;;;;5012836;28;20112;-42
2021/01/28 10:55:22;;;;;;;1.90;1.02;;;19.50;44.80;;;;;;5010872;28;20046;-40
2021/01/28 10:57:49;;;;;;;1.02;0.93;;;19.50;44.80;;;;;;5012366;28;20054;-40
2021/01/28 11:00:17;;;;;;;1.17;0.88;;;19.50;44.90;;;;;;5010963;28;20105;-40
2021/01/28 11:02:44;;;;;;;1.70;1.27;;;19.50;44.80;;;;;;5027874;28;20054;-41
2021/01/28 11:05:28;;;;;;;1.55;1.20;;;19.50;44.80;;;;;;5027035;28;20050;-40
2021/01/28 11:07:54;;;;;;;1.67;1.15;;;19.50;44.80;;;;;;5012388;28;20169;-42
2021/01/28 11:10:23;;;;;;;1.85;1.23;;;19.50;44.80;;;;;;5013398;28;20077;-40
2021/01/28 11:12:57;;;;;;;1.55;1.13;;;19.50;44.80;;;;;;5012289;28;20153;-40
2021/01/28 11:15:26;;;;;;;1.40;1.30;;;19.50;44.90;;;;;;5012299;28;20451;-41
2021/01/28 11:17:53;;;;;;;1.42;1.13;;;19.50;44.80;;;;;;5012114;28;20058;-40
2021/01/28 11:20:20;;;;;;;1.20;1.10;;;19.50;44.80;;;;;;5010875;28;20062;-40
2021/01/28 11:22:46;;;;;;;2.22;1.30;;;19.50;44.80;;;;;;5010398;28;20457;-40
2021/01/28 11:25:19;;;;;;;1.83;1.20;;;19.50;44.80;;;;;;5010626;28;20136;-43
2021/01/28 11:27:48;;;;;;;1.83;1.20;;;19.50;44.80;;;;;;5026767;28;20077;-41
2021/01/28 11:30:17;;;;;;;1.50;1.10;;;19.50;44.80;;;;;;5010302;28;20043;-40
2021/01/28 11:32:44;;;;;;;1.70;1.15;;;19.50;44.80;;;;;;4994730;28;20557;-40
2021/01/28 11:35:11;;;;;;;1.17;1.08;;;19.50;44.80;;;;;;5012581;28;20092;-41
2021/01/28 11:37:38;;;;;;;1.13;1.00;;;19.50;44.80;;;;;;5011479;28;20057;-40
2021/01/28 11:40:06;;;;;;;1.98;1.15;;;19.50;44.80;;;;;;5010222;28;20142;-44
2021/01/28 11:42:33;;;;;;;1.75;1.15;;;19.50;44.80;;;;;;5011285;28;20081;-41
2021/01/28 11:44:59;;;;;;;2.17;1.20;;;19.50;44.80;;;;;;5010227;28;20054;-42
2021/01/28 11:47:26;;;;;;;1.42;1.20;;;19.50;44.80;;;;;;5010949;28;20049;-40
2021/01/28 11:49:53;;;;;;;1.42;1.20;;;19.50;45.40;;;;;;5010523;28;20068;-40
2021/01/28 11:52:20;;;;;;;1.33;1.20;;;19.50;44.80;;;;;;5010065;28;20045;-40
2021/01/28 11:54:48;;;;;;;2.28;0.90;;;19.50;44.80;;;;;;5011409;28;20486;-40
2021/01/28 11:57:15;;;;;;;1.10;0.82;;;19.50;44.80;;;;;;5011710;28;20410;-40
2021/01/28 11:59:41;;;;;;;1.50;1.10;;;19.50;44.80;;;;;;5010828;28;20077;-39
2021/01/28 12:02:08;;;;;;;1.25;1.15;;;19.50;44.80;;;;;;5037634;28;20460;-38
2021/01/28 12:04:34;;;;;;;1.52;1.10;;;19.50;44.80;;;;;;5011612;28;20049;-39
2021/01/28 12:07:01;;;;;;;1.67;1.05;;;19.50;44.80;;;;;;5011012;28;20141;-40
2021/01/28 12:09:28;;;;;;;1.60;1.10;;;19.50;44.80;;;;;;5009632;28;20465;-41
2021/01/28 12:11:54;;;;;;;1.55;1.00;;;19.50;44.80;;;;;;5009865;28;20463;-39
2021/01/28 12:14:21;;;;;;;1.45;1.00;;;19.50;44.90;;;;;;5010626;28;20050;-40
2021/01/28 12:16:48;;;;;;;2.08;1.08;;;19.50;44.80;;;;;;5011030;28;20041;-39
2021/01/28 12:19:16;;;;;;;1.20;0.95;;;19.50;44.80;;;;;;5012076;28;20072;-40
2021/01/28 12:21:43;;;;;;;1.70;1.40;;;19.50;44.80;;;;;;5011962;28;20050;-40
2021/01/28 12:24:11;;;;;;;1.55;1.20;;;19.60;44.90;;;;;;5010869;28;20541;-40
2021/01/28 12:26:38;;;;;;;1.15;0.90;;;19.50;44.80;;;;;;5010043;28;20148;-41
2021/01/28 12:29:04;;;;;;;1.33;0.98;;;19.50;44.80;;;;;;5011840;28;20061;-39
2021/01/28 12:31:31;;;;;;;1.48;1.00;;;19.50;44.80;;;;;;5010519;28;20498;-39
2021/01/28 12:33:58;;;;;;;1.75;1.20;;;19.50;44.80;;;;;;5010548;28;20078;-40
2021/01/28 12:36:26;;;;;;;1.20;1.02;;;19.50;44.80;;;;;;5009256;28;20046;-41
2021/01/28 12:38:53;;;;;;;1.38;0.95;;;19.50;44.80;;;;;;5009338;28;20472;-40
2021/01/28 12:41:20;;;;;;;1.60;1.10;;;19.50;44.80;;;;;;5009176;28;20460;-39
2021/01/28 12:43:46;;;;;;;1.60;1.10;;;19.50;44.80;;;;;;5010467;28;20107;-40
2021/01/28 12:46:13;;;;;;;1.70;1.27;;;19.50;44.80;;;;;;5010897;28;20096;-39
2021/01/28 12:48:40;;;;;;;1.63;1.20;;;19.50;44.90;;;;;;5009322;28;20042;-40
2021/01/28 12:51:07;;;;;;;1.90;1.33;;;19.50;44.80;;;;;;5010920;28;20165;-41
2021/01/28 12:53:34;;;;;;;1.52;1.05;;;19.50;44.80;;;;;;5026198;28;20046;-40
2021/01/28 12:56:01;;;;;;;1.67;1.30;;;19.50;44.80;;;;;;5011115;28;20190;-46
2021/01/28 12:58:27;;;;;;;1.83;1.17;;;19.50;44.80;;;;;;5010400;28;20104;-40
2021/01/28 13:00:54;;;;;;;1.75;1.10;;;19.60;44.90;;;;;;5010180;28;20046;-40
2021/01/28 13:03:21;;;;;;;1.58;1.08;;;19.50;44.80;;;;;;5013783;28;20097;-42
2021/01/28 13:05:48;;;;;;;1.60;1.08;;;19.50;44.80;;;;;;5010458;28;20041;-40
2021/01/28 13:08:14;;;;;;;1.75;1.30;;;19.60;44.90;;;;;;5025447;28;20042;-40
2021/01/28 13:10:41;;;;;;;1.25;1.00;;;19.50;44.80;;;;;;5010418;28;20339;-40
2021/01/28 13:13:08;;;;;;;1.20;1.10;;;19.60;44.90;;;;;;5010155;28;20069;-41
2021/01/28 13:15:35;;;;;;;1.35;1.05;;;19.60;44.90;;;;;;5009157;28;20043;-43
2021/01/28 13:18:04;;;;;;;1.92;1.25;;;19.50;44.80;;;;;;4993656;28;20480;-46